sensor_id;sensor_type;location;lat;lon;timestamp;pressure;altitude;pressure_sealevel;temperature;humidity
2000;BME280;1001;48.87406500;9.59633600;2023-04-26T00:00:47;63665.75;;;-139.97;100.00
2000;BME280;1001;48.87406500;9.59633600;2023-04-26T00:03:14;81844.97;;;6.05;100.00
2000;BME280;1001;48.87406500;9.59633600;2023-04-26T00:05:40;95040.16;;;5.57;100.00
2000;BME280;1001;48.87406500;9.59633600;2023-04-26T00:08:09;63665.75;;;-139.97;100.00
2000;BME280;1001;48.87406500;9.59633600;2023-04-26T00:10:35;63665.75;;;-139.97;100.00
2000;BME280;1001;48.87406500;9.59633600;2023-04-26T00:13:02;63665.75;;;-139.97;100.00
2000;BME280;1001;48.87406500;9.59633600;2023-04-26T00:15:29;63665.75;;;-139.97;100.00
2000;BME280;1001;48.87406500;9.59633600;2023-04-26T00:17:56;63665.75;;;-139.97;100.00
2000;BME280;1001;48.87406500;9.59633600;2023-04-26T00:20:22;63665.75;;;-139.97;100.00
2000;BME280;1001;48.87406500;9.59633600;2023-04-26T00:22:49;63665.75;;;-139.97;100.00
2000;BME280;1001;48.87406500;9.59633600;2023-04-26T00:25:17;63665.75;;;-139.97;100.00
2000;BME280;1001;48.87406500;9.59633600;2023-04-26T00:27:44;63665.75;;;-139.97;100.00
2000;BME280;1001;48.87406500;9.59633600;2023-04-26T00:30:11;63665.75;;;-139.97;100.00
2000;BME280;1001;48.87406500;9.59633600;2023-04-26T00:32:38;63665.75;;;-139.97;100.00
2000;BME280;1001;48.87406500;9.59633600;2023-04-26T00:35:05;63665.75;;;-139.97;100.00
2000;BME280;1001;48.87406500;9.59633600;2023-04-26T00:37:32;63665.75;;;-139.97;100.00
2000;BME280;1001;48.87406500;9.59633600;2023-04-26T00:39:58;63665.75;;;-139.97;100.00
2000;BME280;1001;48.87406500;9.59633600;2023-04-26T00:42:27;63665.75;;;-139.97;100.00
2000;BME280;1001;48.87406500;9.59633600;2023-04-26T00:44:53;63665.75;;;-139.97;100.00
2000;BME280;1001;48.87406500;9.59633600;2023-04-26T00:47:21;63665.75;;;-139.97;100.00
2000;BME280;1001;48.87406500;9.59633600;2023-04-26T00:49:48;63665.75;;;-139.97;100.00
2000;BME280;1001;48.87406500;9.59633600;2023-04-26T00:52:15;63665.75;;;-139.97;100.00
2000;BME280;1001;48.87406500;9.59633600;2023-04-26T00:54:42;63665.75;;;-139.97;100.00
2000;BME280;1001;48.87406500;9.59633600;2023-04-26T00:57:09;63665.75;;;-139.97;100.00
2000;BME280;1001;48.87406500;9.59633600;2023-04-26T00:59:37;63665.75;;;-139.97;100.00
2000;BME280;1001;48.87406500;9.59633600;2023-04-26T01:02:05;63665.75;;;-139.97;100.00
2000;BME280;1001;48.87406500;9.59633600;2023-04-26T01:04:32;63665.75;;;-139.97;100.00
2000;BME280;1001;48.87406500;9.59633600;2023-04-26T01:06:59;63665.75;;;-139.97;100.00
2000;BME280;1001;48.87406500;9.59633600;2023-04-26T01:09:27;63665.75;;;-139.97;100.00
2000;BME280;1001;48.87406500;9.59633600;2023-04-26T01:11:55;63665.75;;;-139.97;100.00
2000;BME280;1001;48.87406500;9.59633600;2023-04-26T01:14:23;63665.75;;;-139.97;100.00
2000;BME280;1001;48.87406500;9.59633600;2023-04-26T01:16:51;63665.75;;;-139.97;100.00
2000;BME280;1001;48.87406500;9.59633600;2023-04-26T01:19:18;63665.75;;;-139.97;100.00
2000;BME280;1001;48.87406500;9.59633600;2023-04-26T01:21:45;63665.75;;;-139.97;100.00
2000;BME280;1001;48.87406500;9.59633600;2023-04-26T01:24:13;63665.75;;;-139.97;100.00
2000;BME280;1001;48.87406500;9.59633600;2023-04-26T01:26:40;63665.75;;;-139.97;100.00
2000;BME280;1001;48.87406500;9.59633600;2023-04-26T01:29:13;63665.75;;;-139.97;100.00
2000;BME280;1001;48.87406500;9.59633600;2023-04-26T01:31:40;63665.75;;;-139.97;100.00
2000;BME280;1001;48.87406500;9.59633600;2023-04-26T01:34:07;63665.75;;;-139.97;100.00
2000;BME280;1001;48.87406500;9.59633600;2023-04-26T01:36:34;63665.75;;;-139.97;100.00
2000;BME280;1001;48.87406500;9.59633600;2023-04-26T01:39:00;63665.75;;;-139.97;100.00
2000;BME280;1001;48.87406500;9.59633600;2023-04-26T01:41:28;63665.75;;;-139.97;100.00
2000;BME280;1001;48.87406500;9.59633600;2023-04-26T01:43:55;63665.75;;;-139.97;100.00
2000;BME280;1001;48.87406500;9.59633600;2023-04-26T01:46:21;63665.75;;;-139.97;100.00
2000;BME280;1001;48.87406500;9.59633600;2023-04-26T01:48:48;63665.75;;;-139.97;100.00
2000;BME280;1001;48.87406500;9.59633600;2023-04-26T01:51:15;63665.75;;;-139.97;100.00
2000;BME280;1001;48.87406500;9.59633600;2023-04-26T01:53:41;63665.75;;;-139.97;100.00
2000;BME280;1001;48.87406500;9.59633600;2023-04-26T01:56:08;63665.75;;;-139.97;100.00
2000;BME280;1001;48.87406500;9.59633600;2023-04-26T01:58:36;63665.75;;;-139.97;100.00
2000;BME280;1001;48.87406500;9.59633600;2023-04-26T02:01:04;63665.75;;;-139.97;100.00
2000;BME280;1001;48.87406500;9.59633600;2023-04-26T02:03:31;63665.75;;;-139.97;100.00
2000;BME280;1001;48.87406500;9.59633600;2023-04-26T02:05:58;63665.75;;;-139.97;100.00
2000;BME280;1001;48.87406500;9.59633600;2023-04-26T02:08:25;63665.75;;;-139.97;100.00
2000;BME280;1001;48.87406500;9.59633600;2023-04-26T02:10:51;63665.75;;;-139.97;100.00
2000;BME280;1001;48.87406500;9.59633600;2023-04-26T02:13:18;63665.75;;;-139.97;100.00
2000;BME280;1001;48.87406500;9.59633600;2023-04-26T02:15:47;63665.75;;;-139.97;100.00
2000;BME280;1001;48.87406500;9.59633600;2023-04-26T02:18:14;63665.75;;;-139.97;100.00
2000;BME280;1001;48.87406500;9.59633600;2023-04-26T02:20:41;63665.75;;;-139.97;100.00
2000;BME280;1001;48.87406500;9.59633600;2023-04-26T02:23:08;63665.75;;;-139.97;100.00
2000;BME280;1001;48.87406500;9.59633600;2023-04-26T02:25:35;63665.75;;;-139.97;100.00
2000;BME280;1001;48.87406500;9.59633600;2023-04-26T02:28:01;63665.75;;;-139.97;100.00
2000;BME280;1001;48.87406500;9.59633600;2023-04-26T02:30:28;63665.75;;;-139.97;100.00
2000;BME280;1001;48.87406500;9.59633600;2023-04-26T02:32:57;63665.75;;;-139.97;100.00
2000;BME280;1001;48.87406500;9.59633600;2023-04-26T02:35:24;63665.75;;;-139.97;100.00
2000;BME280;1001;48.87406500;9.59633600;2023-04-26T02:37:51;63665.75;;;-139.97;100.00
2000;BME280;1001;48.87406500;9.59633600;2023-04-26T02:40:17;63665.75;;;-139.97;100.00
2000;BME280;1001;48.87406500;9.59633600;2023-04-26T02:42:44;63665.75;;;-139.97;100.00
2000;BME280;1001;48.87406500;9.59633600;2023-04-26T02:45:11;63665.75;;;-139.97;100.00
2000;BME280;1001;48.87406500;9.59633600;2023-04-26T02:47:38;63665.75;;;-139.97;100.00
2000;BME280;1001;48.87406500;9.59633600;2023-04-26T02:50:07;63665.75;;;-139.97;100.00
2000;BME280;1001;48.87406500;9.59633600;2023-04-26T02:52:34;63665.75;;;-139.97;100.00
2000;BME280;1001;48.87406500;9.59633600;2023-04-26T02:55:02;63665.75;;;-139.97;100.00
2000;BME280;1001;48.87406500;9.59633600;2023-04-26T02:57:29;63665.75;;;-139.97;100.00
2000;BME280;1001;48.87406500;9.59633600;2023-04-26T02:59:56;63665.75;;;-139.97;100.00
2000;BME280;1001;48.87406500;9.59633600;2023-04-26T03:02:23;63665.75;;;-139.97;100.00
2000;BME280;1001;48.87406500;9.59633600;2023-04-26T03:04:49;63665.75;;;-139.97;100.00
2000;BME280;1001;48.87406500;9.59633600;2023-04-26T03:07:17;63665.75;;;-139.97;100.00
2000;BME280;1001;48.87406500;9.59633600;2023-04-26T03:09:44;63665.75;;;-139.97;100.00
2000;BME280;1001;48.87406500;9.59633600;2023-04-26T03:12:11;63665.75;;;-139.97;100.00
2000;BME280;1001;48.87406500;9.59633600;2023-04-26T03:14:37;63665.75;;;-139.97;100.00
2000;BME280;1001;48.87406500;9.59633600;2023-04-26T03:17:04;63665.75;;;-139.97;100.00
2000;BME280;1001;48.87406500;9.59633600;2023-04-26T03:19:31;63665.75;;;-139.97;100.00
2000;BME280;1001;48.87406500;9.59633600;2023-04-26T03:21:57;63665.75;;;-139.97;100.00
2000;BME280;1001;48.87406500;9.59633600;2023-04-26T03:24:25;63665.75;;;-139.97;100.00
2000;BME280;1001;48.87406500;9.59633600;2023-04-26T03:26:52;63665.75;;;-139.97;100.00
2000;BME280;1001;48.87406500;9.59633600;2023-04-26T03:29:18;63665.75;;;-139.97;100.00
2000;BME280;1001;48.87406500;9.59633600;2023-04-26T03:31:45;63665.75;;;-139.97;100.00
2000;BME280;1001;48.87406500;9.59633600;2023-04-26T03:34:12;63665.75;;;-139.97;100.00
2000;BME280;1001;48.87406500;9.59633600;2023-04-26T03:36:38;63665.75;;;-139.97;100.00
2000;BME280;1001;48.87406500;9.59633600;2023-04-26T03:39:05;63665.75;;;-139.97;100.00
2000;BME280;1001;48.87406500;9.59633600;2023-04-26T03:41:33;63665.75;;;-139.97;100.00
2000;BME280;1001;48.87406500;9.59633600;2023-04-26T03:44:01;63665.75;;;-139.97;100.00
2000;BME280;1001;48.87406500;9.59633600;2023-04-26T03:46:27;63665.75;;;-139.97;100.00
2000;BME280;1001;48.87406500;9.59633600;2023-04-26T03:48:54;63665.75;;;-139.97;100.00
2000;BME280;1001;48.87406500;9.59633600;2023-04-26T03:51:20;63665.75;;;-139.97;100.00
2000;BME280;1001;48.87406500;9.59633600;2023-04-26T03:53:47;63665.75;;;-139.97;100.00
2000;BME280;1001;48.87406500;9.59633600;2023-04-26T03:56:14;63665.75;;;-139.97;100.00
2000;BME280;1001;48.87406500;9.59633600;2023-04-26T03:58:42;63665.75;;;-139.97;100.00
2000;BME280;1001;48.87406500;9.59633600;2023-04-26T04:01:09;63665.75;;;-139.97;100.00
2000;BME280;1001;48.87406500;9.59633600;2023-04-26T04:03:35;63665.75;;;-139.97;100.00
2000;BME280;1001;48.87406500;9.59633600;2023-04-26T04:06:02;63665.75;;;-139.97;100.00
2000;BME280;1001;48.87406500;9.59633600;2023-04-26T04:08:29;63665.75;;;-139.97;100.00
2000;BME280;1001;48.87406500;9.59633600;2023-04-26T04:10:56;63665.75;;;-139.97;100.00
2000;BME280;1001;48.87406500;9.59633600;2023-04-26T04:13:22;63665.75;;;-139.97;100.00
2000;BME280;1001;48.87406500;9.59633600;2023-04-26T04:15:50;63665.75;;;-139.97;100.00
2000;BME280;1001;48.87406500;9.59633600;2023-04-26T04:18:17;63665.75;;;-139.97;100.00
2000;BME280;1001;48.87406500;9.59633600;2023-04-26T04:20:44;63665.75;;;-139.97;100.00
2000;BME280;1001;48.87406500;9.59633600;2023-04-26T04:23:11;63665.75;;;-139.97;100.00
2000;BME280;1001;48.87406500;9.59633600;2023-04-26T04:25:38;63665.75;;;-139.97;100.00
2000;BME280;1001;48.87406500;9.59633600;2023-04-26T04:28:04;63665.75;;;-139.97;100.00
2000;BME280;1001;48.87406500;9.59633600;2023-04-26T04:30:31;63665.75;;;-139.97;100.00
2000;BME280;1001;48.87406500;9.59633600;2023-04-26T04:32:59;63665.75;;;-139.97;100.00
2000;BME280;1001;48.87406500;9.59633600;2023-04-26T04:35:29;63665.75;;;-139.97;100.00
2000;BME280;1001;48.87406500;9.59633600;2023-04-26T04:37:57;63665.75;;;-139.97;100.00
2000;BME280;1001;48.87406500;9.59633600;2023-04-26T04:40:24;63665.75;;;-139.97;100.00
2000;BME280;1001;48.87406500;9.59633600;2023-04-26T04:42:51;63665.75;;;-139.97;100.00
2000;BME280;1001;48.87406500;9.59633600;2023-04-26T04:45:19;63665.75;;;-139.97;100.00
2000;BME280;1001;48.87406500;9.59633600;2023-04-26T04:47:49;63665.75;;;-139.97;100.00
2000;BME280;1001;48.87406500;9.59633600;2023-04-26T04:50:20;63665.75;;;-139.97;100.00
2000;BME280;1001;48.87406500;9.59633600;2023-04-26T04:52:47;63665.75;;;-139.97;100.00
2000;BME280;1001;48.87406500;9.59633600;2023-04-26T04:55:33;63665.75;;;-139.97;100.00
2000;BME280;1001;48.87406500;9.59633600;2023-04-26T04:58:01;63665.75;;;-139.97;100.00
2000;BME280;1001;48.87406500;9.59633600;2023-04-26T05:00:28;63665.75;;;-139.97;100.00
2000;BME280;1001;48.87406500;9.59633600;2023-04-26T05:02:54;63665.75;;;-139.97;100.00
2000;BME280;1001;48.87406500;9.59633600;2023-04-26T05:05:23;63665.75;;;-139.97;100.00
2000;BME280;1001;48.87406500;9.59633600;2023-04-26T05:07:49;63665.75;;;-139.97;100.00
2000;BME280;1001;48.87406500;9.59633600;2023-04-26T05:10:16;63665.75;;;-139.97;100.00
2000;BME280;1001;48.87406500;9.59633600;2023-04-26T05:12:42;63665.75;;;-139.97;100.00
2000;BME280;1001;48.87406500;9.59633600;2023-04-26T05:15:09;63665.75;;;-139.97;100.00
2000;BME280;1001;48.87406500;9.59633600;2023-04-26T05:17:36;63665.75;;;-139.97;100.00
2000;BME280;1001;48.87406500;9.59633600;2023-04-26T05:20:03;63665.75;;;-139.97;100.00
2000;BME280;1001;48.87406500;9.59633600;2023-04-26T05:22:34;63665.75;;;-139.97;100.00
2000;BME280;1001;48.87406500;9.59633600;2023-04-26T05:25:01;63665.75;;;-139.97;100.00
2000;BME280;1001;48.87406500;9.59633600;2023-04-26T05:27:28;63665.75;;;-139.97;100.00
2000;BME280;1001;48.87406500;9.59633600;2023-04-26T05:29:55;63665.75;;;-139.97;100.00
2000;BME280;1001;48.87406500;9.59633600;2023-04-26T05:32:22;63665.75;;;-139.97;100.00
2000;BME280;1001;48.87406500;9.59633600;2023-04-26T05:34:48;63665.75;;;-139.97;100.00
2000;BME280;1001;48.87406500;9.59633600;2023-04-26T05:37:15;63665.75;;;-139.97;100.00
2000;BME280;1001;48.87406500;9.59633600;2023-04-26T05:39:43;63665.75;;;-139.97;100.00
2000;BME280;1001;48.87406500;9.59633600;2023-04-26T05:42:10;63665.75;;;-139.97;100.00
2000;BME280;1001;48.87406500;9.59633600;2023-04-26T05:44:36;63665.75;;;-139.97;100.00
2000;BME280;1001;48.87406500;9.59633600;2023-04-26T05:47:03;63665.75;;;-139.97;100.00
2000;BME280;1001;48.87406500;9.59633600;2023-04-26T05:49:29;63665.75;;;-139.97;100.00
2000;BME280;1001;48.87406500;9.59633600;2023-04-26T05:51:57;63665.75;;;-139.97;100.00
2000;BME280;1001;48.87406500;9.59633600;2023-04-26T05:54:24;63665.75;;;-139.97;100.00
2000;BME280;1001;48.87406500;9.59633600;2023-04-26T05:56:52;63665.75;;;-139.97;100.00
2000;BME280;1001;48.87406500;9.59633600;2023-04-26T05:59:19;63665.75;;;-139.97;100.00
2000;BME280;1001;48.87406500;9.59633600;2023-04-26T06:01:45;115769.34;;;-139.97;100.00
2000;BME280;1001;48.87406500;9.59633600;2023-04-26T06:04:12;63665.75;;;-139.97;100.00
2000;BME280;1001;48.87406500;9.59633600;2023-04-26T06:06:38;63665.75;;;-139.97;100.00
2000;BME280;1001;48.87406500;9.59633600;2023-04-26T06:09:05;63665.75;;;-139.97;100.00
2000;BME280;1001;48.87406500;9.59633600;2023-04-26T06:11:32;63665.75;;;-139.97;100.00
2000;BME280;1001;48.87406500;9.59633600;2023-04-26T06:14:00;63665.75;;;-139.97;100.00
2000;BME280;1001;48.87406500;9.59633600;2023-04-26T06:16:27;63665.75;;;-139.97;100.00
2000;BME280;1001;48.87406500;9.59633600;2023-04-26T06:18:53;95040.16;;;5.57;100.00
2000;BME280;1001;48.87406500;9.59633600;2023-04-26T06:21:20;63665.75;;;-139.97;100.00
2000;BME280;1001;48.87406500;9.59633600;2023-04-26T06:23:47;63665.75;;;-139.97;100.00
2000;BME280;1001;48.87406500;9.59633600;2023-04-26T06:26:13;63665.75;;;-139.97;100.00
2000;BME280;1001;48.87406500;9.59633600;2023-04-26T06:28:40;63665.75;;;-139.97;100.00
2000;BME280;1001;48.87406500;9.59633600;2023-04-26T06:31:08;63665.75;;;-139.97;100.00
2000;BME280;1001;48.87406500;9.59633600;2023-04-26T06:33:34;63665.75;;;-139.97;100.00
2000;BME280;1001;48.87406500;9.59633600;2023-04-26T06:36:01;63665.75;;;-139.97;100.00
2000;BME280;1001;48.87406500;9.59633600;2023-04-26T06:38:28;63665.75;;;-139.97;100.00
2000;BME280;1001;48.87406500;9.59633600;2023-04-26T06:40:54;63665.75;;;-139.97;100.00
2000;BME280;1001;48.87406500;9.59633600;2023-04-26T06:43:21;63665.75;;;-139.97;100.00
2000;BME280;1001;48.87406500;9.59633600;2023-04-26T06:45:48;63665.75;;;-139.97;100.00
2000;BME280;1001;48.87406500;9.59633600;2023-04-26T06:48:16;63665.75;;;-139.97;100.00
2000;BME280;1001;48.87406500;9.59633600;2023-04-26T06:50:42;63665.75;;;-139.97;100.00
2000;BME280;1001;48.87406500;9.59633600;2023-04-26T06:53:09;63665.75;;;-139.97;100.00
2000;BME280;1001;48.87406500;9.59633600;2023-04-26T06:55:35;63665.75;;;-139.97;100.00
2000;BME280;1001;48.87406500;9.59633600;2023-04-26T06:58:02;63665.75;;;-139.97;100.00
2000;BME280;1001;48.87406500;9.59633600;2023-04-26T07:00:29;63665.75;;;-139.97;100.00
2000;BME280;1001;48.87406500;9.59633600;2023-04-26T07:02:56;63665.75;;;-139.97;100.00
2000;BME280;1001;48.87406500;9.59633600;2023-04-26T07:05:24;63665.75;;;-139.97;100.00
2000;BME280;1001;48.87406500;9.59633600;2023-04-26T07:07:51;63665.75;;;-139.97;100.00
2000;BME280;1001;48.87406500;9.59633600;2023-04-26T07:10:17;63665.75;;;-139.97;100.00
2000;BME280;1001;48.87406500;9.59633600;2023-04-26T07:12:45;63665.75;;;-139.97;100.00
2000;BME280;1001;48.87406500;9.59633600;2023-04-26T07:15:12;63665.75;;;-139.97;100.00
2000;BME280;1001;48.87406500;9.59633600;2023-04-26T07:17:38;63665.75;;;-139.97;100.00
2000;BME280;1001;48.87406500;9.59633600;2023-04-26T07:20:06;63665.75;;;-139.97;100.00
2000;BME280;1001;48.87406500;9.59633600;2023-04-26T07:22:34;63665.75;;;-139.97;100.00
2000;BME280;1001;48.87406500;9.59633600;2023-04-26T07:25:01;63665.75;;;-139.97;100.00
2000;BME280;1001;48.87406500;9.59633600;2023-04-26T07:27:30;63665.75;;;-139.97;100.00
2000;BME280;1001;48.87406500;9.59633600;2023-04-26T07:29:56;63665.75;;;-139.97;100.00
2000;BME280;1001;48.87406500;9.59633600;2023-04-26T07:32:23;63665.75;;;-139.97;100.00
2000;BME280;1001;48.87406500;9.59633600;2023-04-26T07:34:50;63665.75;;;-139.97;100.00
2000;BME280;1001;48.87406500;9.59633600;2023-04-26T07:37:16;63665.75;;;-139.97;100.00
2000;BME280;1001;48.87406500;9.59633600;2023-04-26T07:39:44;63665.75;;;-139.97;100.00
2000;BME280;1001;48.87406500;9.59633600;2023-04-26T07:42:11;63665.75;;;-139.97;100.00
2000;BME280;1001;48.87406500;9.59633600;2023-04-26T07:44:37;63665.75;;;-139.97;100.00
2000;BME280;1001;48.87406500;9.59633600;2023-04-26T07:47:04;63665.75;;;-139.97;100.00
2000;BME280;1001;48.87406500;9.59633600;2023-04-26T07:49:31;63665.75;;;-139.97;100.00
2000;BME280;1001;48.87406500;9.59633600;2023-04-26T07:51:57;63665.75;;;-139.97;100.00
2000;BME280;1001;48.87406500;9.59633600;2023-04-26T07:54:26;63665.75;;;-139.97;100.00
2000;BME280;1001;48.87406500;9.59633600;2023-04-26T07:56:54;63665.75;;;-139.97;100.00
2000;BME280;1001;48.87406500;9.59633600;2023-04-26T07:59:21;63665.75;;;-139.97;100.00
2000;BME280;1001;48.87406500;9.59633600;2023-04-26T08:01:47;63665.75;;;-139.97;100.00
2000;BME280;1001;48.87406500;9.59633600;2023-04-26T08:04:14;63665.75;;;-139.97;100.00
2000;BME280;1001;48.87406500;9.59633600;2023-04-26T08:06:41;63665.75;;;-139.97;100.00
2000;BME280;1001;48.87406500;9.59633600;2023-04-26T08:09:09;63665.75;;;-139.97;100.00
2000;BME280;1001;48.87406500;9.59633600;2023-04-26T08:11:35;95040.16;;;5.57;100.00
2000;BME280;1001;48.87406500;9.59633600;2023-04-26T08:14:03;95040.16;;;5.57;100.00
2000;BME280;1001;48.87406500;9.59633600;2023-04-26T08:16:31;95040.16;;;5.57;100.00
2000;BME280;1001;48.87406500;9.59633600;2023-04-26T08:18:57;95040.16;;;5.57;100.00
2000;BME280;1001;48.87406500;9.59633600;2023-04-26T08:21:26;95149.69;;;10.67;66.26
2000;BME280;1001;48.87406500;9.59633600;2023-04-26T08:23:53;95146.16;;;10.85;65.97
2000;BME280;1001;48.87406500;9.59633600;2023-04-26T08:26:20;95148.88;;;11.02;66.57
2000;BME280;1001;48.87406500;9.59633600;2023-04-26T08:28:46;95156.88;;;11.46;68.55
2000;BME280;1001;48.87406500;9.59633600;2023-04-26T08:31:14;95156.88;;;11.46;68.55
2000;BME280;1001;48.87406500;9.59633600;2023-04-26T08:33:41;95156.88;;;11.46;68.55
2000;BME280;1001;48.87406500;9.59633600;2023-04-26T08:36:08;95160.47;;;11.97;62.61
2000;BME280;1001;48.87406500;9.59633600;2023-04-26T08:38:34;95160.47;;;11.97;62.61
2000;BME280;1001;48.87406500;9.59633600;2023-04-26T08:41:01;95160.47;;;-139.97;62.61
2000;BME280;1001;48.87406500;9.59633600;2023-04-26T08:43:29;95160.47;;;11.97;62.61
2000;BME280;1001;48.87406500;9.59633600;2023-04-26T08:45:57;95160.47;;;11.97;62.61
2000;BME280;1001;48.87406500;9.59633600;2023-04-26T08:48:27;95160.47;;;11.97;62.61
2000;BME280;1001;48.87406500;9.59633600;2023-04-26T08:50:57;95170.47;;;11.60;56.66
2000;BME280;1001;48.87406500;9.59633600;2023-04-26T08:53:24;95165.75;;;11.85;57.54
2000;BME280;1001;48.87406500;9.59633600;2023-04-26T08:55:52;95176.31;;;11.90;55.71
2000;BME280;1001;48.87406500;9.59633600;2023-04-26T08:58:19;95171.00;;;11.85;56.27
2000;BME280;1001;48.87406500;9.59633600;2023-04-26T09:00:46;95171.00;;;11.85;56.27
2000;BME280;1001;48.87406500;9.59633600;2023-04-26T09:03:13;95171.00;;;11.85;56.26
2000;BME280;1001;48.87406500;9.59633600;2023-04-26T09:05:41;95171.00;;;11.85;56.27
2000;BME280;1001;48.87406500;9.59633600;2023-04-26T09:08:13;95166.09;;;9.50;59.35
2000;BME280;1001;48.87406500;9.59633600;2023-04-26T09:10:41;95166.09;;;9.50;59.35
2000;BME280;1001;48.87406500;9.59633600;2023-04-26T09:13:08;95166.09;;;9.50;59.35
2000;BME280;1001;48.87406500;9.59633600;2023-04-26T09:15:36;95166.81;;;-139.96;60.44
2000;BME280;1001;48.87406500;9.59633600;2023-04-26T09:18:15;95166.81;;;9.57;60.44
2000;BME280;1001;48.87406500;9.59633600;2023-04-26T09:20:44;63665.75;;;9.57;100.00
2000;BME280;1001;48.87406500;9.59633600;2023-04-26T09:23:11;63665.75;;;-139.97;100.00
2000;BME280;1001;48.87406500;9.59633600;2023-04-26T09:25:38;95166.81;;;9.57;60.44
2000;BME280;1001;48.87406500;9.59633600;2023-04-26T09:28:18;95166.81;;;9.57;60.44
2000;BME280;1001;48.87406500;9.59633600;2023-04-26T09:30:45;95152.97;;;11.49;56.13
2000;BME280;1001;48.87406500;9.59633600;2023-04-26T09:33:12;95153.81;;;11.26;53.67
2000;BME280;1001;48.87406500;9.59633600;2023-04-26T09:35:40;95153.81;;;11.26;53.67
2000;BME280;1001;48.87406500;9.59633600;2023-04-26T09:38:09;95155.16;;;11.52;53.78
2000;BME280;1001;48.87406500;9.59633600;2023-04-26T09:40:37;95155.16;;;11.52;53.78
2000;BME280;1001;48.87406500;9.59633600;2023-04-26T09:43:06;95155.16;;;11.52;53.78
2000;BME280;1001;48.87406500;9.59633600;2023-04-26T09:45:45;95154.31;;;13.24;54.00
2000;BME280;1001;48.87406500;9.59633600;2023-04-26T09:48:15;95152.56;;;12.42;49.78
2000;BME280;1001;48.87406500;9.59633600;2023-04-26T09:50:42;95152.56;;;12.42;49.78
2000;BME280;1001;48.87406500;9.59633600;2023-04-26T09:53:11;95152.56;;;12.42;49.78
2000;BME280;1001;48.87406500;9.59633600;2023-04-26T09:55:49;95145.19;;;12.93;52.87
2000;BME280;1001;48.87406500;9.59633600;2023-04-26T09:58:16;95150.22;;;13.55;51.21
2000;BME280;1001;48.87406500;9.59633600;2023-04-26T10:00:43;95136.41;;;13.05;52.38
2000;BME280;1001;48.87406500;9.59633600;2023-04-26T10:03:11;95140.81;;;12.44;52.69
2000;BME280;1001;48.87406500;9.59633600;2023-04-26T10:05:38;95140.81;;;12.44;52.69
2000;BME280;1001;48.87406500;9.59633600;2023-04-26T10:08:05;95149.56;;;12.05;50.00
2000;BME280;1001;48.87406500;9.59633600;2023-04-26T10:10:34;95149.56;;;12.05;50.00
2000;BME280;1001;48.87406500;9.59633600;2023-04-26T10:13:01;95132.03;;;12.55;51.91
2000;BME280;1001;48.87406500;9.59633600;2023-04-26T10:15:28;95132.03;;;12.55;51.91
2000;BME280;1001;48.87406500;9.59633600;2023-04-26T10:17:55;95140.63;;;12.51;51.74
2000;BME280;1001;48.87406500;9.59633600;2023-04-26T10:20:23;95141.66;;;12.33;52.12
2000;BME280;1001;48.87406500;9.59633600;2023-04-26T10:22:54;95140.50;;;12.95;47.85
2000;BME280;1001;48.87406500;9.59633600;2023-04-26T10:25:35;95140.50;;;12.95;47.85
2000;BME280;1001;48.87406500;9.59633600;2023-04-26T10:28:01;95140.50;;;12.95;47.85
2000;BME280;1001;48.87406500;9.59633600;2023-04-26T10:30:29;95137.63;;;14.37;45.82
2000;BME280;1001;48.87406500;9.59633600;2023-04-26T10:33:20;95137.63;;;14.37;45.82
2000;BME280;1001;48.87406500;9.59633600;2023-04-26T10:36:04;95140.09;;;14.49;48.11
2000;BME280;1001;48.87406500;9.59633600;2023-04-26T10:38:32;95135.78;;;14.74;45.79
2000;BME280;1001;48.87406500;9.59633600;2023-04-26T10:41:32;95139.56;;;14.47;46.61
2000;BME280;1001;48.87406500;9.59633600;2023-04-26T10:46:41;95131.91;;;14.45;47.46
2000;BME280;1001;48.87406500;9.59633600;2023-04-26T10:49:15;95131.91;;;14.45;47.46
2000;BME280;1001;48.87406500;9.59633600;2023-04-26T10:52:07;95122.91;;;13.34;47.31
2000;BME280;1001;48.87406500;9.59633600;2023-04-26T10:54:52;95119.56;;;12.62;49.49
2000;BME280;1001;48.87406500;9.59633600;2023-04-26T10:57:21;95119.56;;;12.62;49.49
2000;BME280;1001;48.87406500;9.59633600;2023-04-26T11:03:05;95122.31;;;12.89;49.57
2000;BME280;1001;48.87406500;9.59633600;2023-04-26T11:05:50;95121.78;;;12.92;51.13
2000;BME280;1001;48.87406500;9.59633600;2023-04-26T11:08:19;95121.78;;;12.92;51.13
2000;BME280;1001;48.87406500;9.59633600;2023-04-26T11:10:50;95121.78;;;12.92;51.13
2000;BME280;1001;48.87406500;9.59633600;2023-04-26T11:13:19;95119.72;;;12.72;49.15
2000;BME280;1001;48.87406500;9.59633600;2023-04-26T11:15:46;95119.72;;;12.72;49.15
2000;BME280;1001;48.87406500;9.59633600;2023-04-26T11:18:17;95115.00;;;13.56;48.97
2000;BME280;1001;48.87406500;9.59633600;2023-04-26T11:20:45;95109.06;;;14.19;45.48
2000;BME280;1001;48.87406500;9.59633600;2023-04-26T11:23:11;95108.28;;;14.55;46.10
2000;BME280;1001;48.87406500;9.59633600;2023-04-26T11:25:38;95104.50;;;13.83;46.86
2000;BME280;1001;48.87406500;9.59633600;2023-04-26T11:28:05;95104.50;;;13.83;46.86
2000;BME280;1001;48.87406500;9.59633600;2023-04-26T11:30:33;95095.72;;;13.24;47.65
2000;BME280;1001;48.87406500;9.59633600;2023-04-26T11:33:01;95098.91;;;12.87;45.24
2000;BME280;1001;48.87406500;9.59633600;2023-04-26T11:35:28;95094.25;;;12.89;47.18